Time;durP1;ratioP1;P1;durP2;ratioP2;P2;SDS_P1;SDS_P2;PMS_P1;PMS_P2;Temp;Humidity;BMP_temperature;BMP_pressure;BME280_temperature;BME280_humidity;BME280_pressure;Samples;Min_cycle;Max_cycle;Signal;HPM_P1;HPM_P2
2021/06/29 00:00:24;;;;;;;274.25;123.28;;;;;;;19.48;99.12;97684.38;5113563;27;20243;-72
2021/06/29 00:03:00;;;;;;;281.30;128.55;;;;;;;19.81;97.64;97688.69;5128815;27;20210;-71
2021/06/29 00:05:28;;;;;;;282.67;131.80;;;;;;;19.81;97.60;97702.78;5126240;27;20234;-71
2021/06/29 00:07:54;;;;;;;280.35;134.18;;;;;;;19.93;96.33;97705.38;5106314;27;20212;-73
2021/06/29 00:10:22;;;;;;;283.67;135.48;;;;;;;19.88;97.02;97699.63;5111606;27;20220;-72
2021/06/29 00:12:49;;;;;;;291.02;138.50;;;;;;;20.02;95.22;97707.25;5131004;27;20218;-72
2021/06/29 00:15:16;;;;;;;276.25;134.40;;;;;;;20.28;93.45;97693.59;5127596;27;20242;-72
2021/06/29 00:17:43;;;;;;;286.70;133.77;;;;;;;20.17;94.07;97692.69;5108798;27;20208;-72
2021/06/29 00:20:10;;;;;;;293.65;142.80;;;;;;;20.28;93.28;97686.47;5109836;27;20223;-72
2021/06/29 00:22:38;;;;;;;280.85;129.63;;;;;;;20.37;91.69;97691.00;5129717;27;20971;-71
2021/06/29 00:25:06;;;;;;;287.25;140.75;;;;;;;20.05;94.52;97700.84;5131115;27;20235;-71
2021/06/29 00:27:32;;;;;;;296.25;142.25;;;;;;;19.82;96.22;97704.44;5107754;27;20735;-71
2021/06/29 00:29:59;;;;;;;282.45;139.00;;;;;;;19.52;96.50;97714.88;5110783;27;20215;-72
2021/06/29 00:32:25;;;;;;;284.17;130.27;;;;;;;19.60;97.28;97710.66;5126815;27;20231;-72
2021/06/29 00:34:52;;;;;;;295.10;131.93;;;;;;;19.64;98.52;97721.81;5129014;27;20269;-72
2021/06/29 00:37:18;;;;;;;284.02;129.60;;;;;;;19.68;97.88;97722.41;5111021;27;20250;-71
2021/06/29 00:39:46;;;;;;;294.67;132.10;;;;;;;19.96;95.47;97724.47;5107641;27;20216;-71
2021/06/29 00:42:13;;;;;;;292.98;136.15;;;;;;;20.31;93.03;97727.75;5124021;27;20235;-71
2021/06/29 00:44:39;;;;;;;272.58;134.70;;;;;;;20.53;91.24;97719.66;5131551;27;20211;-72
2021/06/29 00:47:10;;;;;;;304.88;137.77;;;;;;;20.58;90.83;97712.13;5114021;27;20235;-71
2021/06/29 00:49:36;;;;;;;286.13;141.50;;;;;;;20.86;88.78;97700.97;5107031;28;20212;-72
2021/06/29 00:52:04;;;;;;;292.17;135.27;;;;;;;20.70;89.88;97691.72;5122498;27;20239;-72
2021/06/29 00:54:30;;;;;;;299.00;153.52;;;;;;;21.01;87.49;97690.81;5130606;27;20376;-72
2021/06/29 00:56:58;;;;;;;281.45;143.57;;;;;;;21.12;86.70;97688.91;5114780;27;20236;-72
2021/06/29 00:59:25;;;;;;;296.55;147.85;;;;;;;21.16;86.39;97689.47;5103769;28;20266;-72
2021/06/29 01:01:51;;;;;;;292.80;147.70;;;;;;;20.78;89.47;97706.94;5117643;27;20235;-72
2021/06/29 01:04:18;;;;;;;292.95;142.00;;;;;;;20.45;92.54;97715.97;5128650;27;20240;-72
2021/06/29 01:06:45;;;;;;;291.00;146.32;;;;;;;20.18;93.27;97720.84;5112336;27;20240;-72
2021/06/29 01:09:11;;;;;;;288.50;146.15;;;;;;;20.26;93.45;97724.66;5109850;28;20207;-72
2021/06/29 01:11:38;;;;;;;300.00;148.10;;;;;;;20.03;95.19;97733.59;5119510;27;20700;-72
2021/06/29 01:14:12;;;;;;;301.95;150.85;;;;;;;19.73;99.11;97731.69;5128890;27;20212;-72
2021/06/29 01:16:39;;;;;;;293.20;155.63;;;;;;;19.77;99.70;97733.09;5111716;27;20239;-71
2021/06/29 01:19:06;;;;;;;289.85;146.00;;;;;;;19.78;100.00;97728.66;5107902;28;20204;-72
2021/06/29 01:21:38;;;;;;;282.05;136.60;;;;;;;19.81;99.28;97723.97;5117640;27;20238;-72
2021/06/29 01:24:08;;;;;;;286.85;136.20;;;;;;;19.52;100.00;97725.47;5127919;27;20294;-71
2021/06/29 01:26:38;;;;;;;288.05;136.38;;;;;;;19.68;100.00;97733.81;5117152;27;20814;-72
2021/06/29 01:29:05;;;;;;;299.63;135.48;;;;;;;19.56;100.00;97724.28;5108678;28;20240;-71
2021/06/29 01:31:31;;;;;;;299.23;135.60;;;;;;;19.62;100.00;97718.47;5119742;27;20292;-72
2021/06/29 01:33:58;;;;;;;287.48;133.23;;;;;;;19.54;99.02;97715.63;5130160;27;20286;-72
2021/06/29 01:36:27;;;;;;;290.60;144.03;;;;;;;19.44;100.00;97723.47;5117717;27;20232;-72
2021/06/29 01:38:55;;;;;;;287.70;136.48;;;;;;;19.42;100.00;97733.31;5108502;27;20208;-72
2021/06/29 01:41:23;;;;;;;284.15;134.82;;;;;;;19.66;99.57;97741.06;5119207;27;20235;-71
2021/06/29 01:43:52;;;;;;;293.05;131.38;;;;;;;19.51;99.79;97734.38;5130905;27;20719;-72
2021/06/29 01:46:20;;;;;;;272.30;132.85;;;;;;;19.45;99.96;97723.34;5120676;27;20380;-72
2021/06/29 01:48:47;;;;;;;291.25;135.77;;;;;;;19.50;99.82;97722.97;5108622;27;20211;-72
2021/06/29 01:51:14;;;;;;;291.40;136.05;;;;;;;19.52;100.00;97715.75;5118805;27;20769;-72
2021/06/29 01:53:41;;;;;;;274.58;126.03;;;;;;;20.23;94.73;97702.75;5134533;27;20219;-72
2021/06/29 01:56:14;;;;;;;287.90;133.85;;;;;;;20.17;94.15;97703.28;5121859;27;20235;-71
2021/06/29 01:58:41;;;;;;;279.67;130.88;;;;;;;19.63;98.27;97710.41;5112995;27;20295;-71
2021/06/29 02:01:07;;;;;;;286.13;136.93;;;;;;;19.33;100.00;97708.47;5121605;27;20235;-71
2021/06/29 02:03:34;;;;;;;294.50;134.88;;;;;;;19.17;100.00;97697.44;5129603;27;20214;-72
2021/06/29 02:06:01;;;;;;;292.17;133.40;;;;;;;19.26;100.00;97696.69;5125143;27;20235;-72
2021/06/29 02:08:27;;;;;;;275.65;127.07;;;;;;;19.84;98.02;97697.22;5111606;27;20220;-72
2021/06/29 02:10:54;;;;;;;294.90;136.20;;;;;;;20.04;95.26;97694.72;5116250;27;20231;-72
2021/06/29 02:13:22;;;;;;;282.80;133.73;;;;;;;19.75;96.62;97703.28;5132135;27;20210;-71
2021/06/29 02:15:48;;;;;;;283.05;125.97;;;;;;;19.45;100.00;97711.91;5122900;27;20239;-72
2021/06/29 02:18:15;;;;;;;272.95;133.85;;;;;;;20.11;94.86;97693.22;5113051;27;20739;-72
2021/06/29 02:20:41;;;;;;;303.80;141.73;;;;;;;19.64;97.08;97706.78;5114680;27;20243;-72
2021/06/29 02:23:08;;;;;;;287.08;132.35;;;;;;;19.56;98.95;97713.69;5128225;27;20218;-72
2021/06/29 02:25:34;;;;;;;291.93;129.17;;;;;;;19.72;97.96;97714.09;5127842;27;20239;-71
2021/06/29 02:28:01;;;;;;;266.83;126.90;;;;;;;19.72;96.74;97695.59;5111651;27;20285;-72
2021/06/29 02:30:29;;;;;;;289.52;133.75;;;;;;;19.42;100.00;97697.13;5113620;27;20757;-72
2021/06/29 02:32:56;;;;;;;285.67;135.93;;;;;;;19.63;97.47;97691.88;5130025;27;20218;-72
2021/06/29 02:35:22;;;;;;;262.37;127.37;;;;;;;19.91;95.87;97691.44;5128860;27;20242;-72
2021/06/29 02:37:49;;;;;;;286.47;132.87;;;;;;;20.22;93.70;97692.31;5110858;27;20240;-72
2021/06/29 02:40:16;;;;;;;270.95;129.60;;;;;;;19.96;94.32;97694.50;5112681;27;20216;-71
2021/06/29 02:42:43;;;;;;;295.48;136.52;;;;;;;19.93;94.48;97689.50;5131538;27;20234;-72
2021/06/29 02:45:11;;;;;;;300.47;145.37;;;;;;;20.10;94.33;97680.09;5133123;27;20231;-72
2021/06/29 02:47:39;;;;;;;287.40;130.07;;;;;;;20.00;94.41;97695.94;5110932;27;20212;-72
2021/06/29 02:50:08;;;;;;;294.77;141.18;;;;;;;20.22;92.94;97682.56;5107017;27;20802;-72
2021/06/29 02:52:35;;;;;;;273.98;128.35;;;;;;;20.36;91.79;97684.00;5131414;27;20211;-72
2021/06/29 02:55:02;;;;;;;290.73;135.23;;;;;;;20.03;93.27;97693.88;5131666;27;20239;-72
2021/06/29 02:57:28;;;;;;;288.73;138.57;;;;;;;19.81;94.70;97694.84;5111309;27;20240;-73
2021/06/29 02:59:55;;;;;;;290.97;140.97;;;;;;;19.86;94.43;97699.75;5110907;27;20211;-72
2021/06/29 03:02:21;;;;;;;274.92;132.00;;;;;;;19.73;96.32;97699.91;5129383;27;20254;-72
2021/06/29 03:04:49;;;;;;;288.37;132.67;;;;;;;20.10;94.38;97682.75;5132895;27;20207;-72
2021/06/29 03:07:16;;;;;;;281.08;132.55;;;;;;;20.21;93.60;97672.91;5111619;27;20242;-72
2021/06/29 03:09:42;;;;;;;279.27;139.20;;;;;;;20.23;92.96;97667.50;5111553;27;20726;-72
2021/06/29 03:12:10;;;;;;;296.95;144.82;;;;;;;20.54;90.39;97663.03;5129702;27;20258;-72
2021/06/29 03:14:38;;;;;;;290.30;137.17;;;;;;;20.56;89.94;97652.31;5132065;27;20206;-72
2021/06/29 03:17:05;;;;;;;293.53;144.63;;;;;;;20.80;88.50;97646.69;5113341;27;20240;-72
2021/06/29 03:19:32;;;;;;;306.40;147.63;;;;;;;20.49;90.04;97654.63;5109380;27;20215;-72
2021/06/29 03:22:01;;;;;;;304.27;159.50;;;;;;;20.11;93.52;97658.81;5126659;27;20240;-72
2021/06/29 03:24:28;;;;;;;287.77;148.87;;;;;;;20.00;95.26;97664.19;5130730;27;20207;-72
2021/06/29 03:26:55;;;;;;;290.57;144.77;;;;;;;20.04;93.26;97676.19;5110300;27;20331;-72
2021/06/29 03:29:21;;;;;;;289.60;149.00;;;;;;;19.79;93.90;97672.94;5107780;27;20898;-72
2021/06/29 03:31:48;;;;;;;288.60;147.02;;;;;;;19.83;95.08;97684.97;5126007;27;20245;-72
2021/06/29 03:34:15;;;;;;;302.43;148.47;;;;;;;19.78;95.36;97695.09;5130751;27;20211;-72
2021/06/29 03:36:42;;;;;;;291.47;147.23;;;;;;;19.84;94.68;97691.09;5115026;27;20244;-72
2021/06/29 03:39:11;;;;;;;298.27;147.70;;;;;;;19.82;95.03;97695.69;5107637;27;20247;-72
2021/06/29 03:41:37;;;;;;;306.80;149.87;;;;;;;19.90;94.09;97693.22;5121673;27;20241;-72
2021/06/29 03:44:05;;;;;;;297.83;142.73;;;;;;;19.98;93.63;97704.00;5129741;27;20226;-72
2021/06/29 03:46:32;;;;;;;295.27;151.07;;;;;;;19.70;95.88;97721.31;5116730;27;20622;-72
2021/06/29 03:48:58;;;;;;;323.70;155.33;;;;;;;19.44;98.16;97732.22;5109542;27;20979;-72
2021/06/29 03:51:25;;;;;;;277.23;138.60;;;;;;;19.36;99.66;97732.03;5121596;27;20238;-72
2021/06/29 03:53:52;;;;;;;282.33;148.63;;;;;;;19.41;99.29;97740.44;5130722;27;20231;-72
2021/06/29 03:56:28;;;;;;;285.83;135.67;;;;;;;19.41;99.05;97743.06;5120236;27;20239;-72
2021/06/29 03:58:55;;;;;;;289.63;142.70;;;;;;;19.40;98.62;97736.09;5109201;27;20215;-72
2021/06/29 04:01:22;;;;;;;294.97;145.23;;;;;;;19.50;98.91;97743.28;5122216;27;20235;-72
2021/06/29 04:03:54;;;;;;;293.17;146.73;;;;;;;19.36;99.54;97744.41;5129925;27;20210;-72
2021/06/29 04:06:20;;;;;;;290.97;143.30;;;;;;;19.32;98.41;97738.53;5119177;27;20879;-72
2021/06/29 04:08:47;;;;;;;292.60;144.40;;;;;;;19.59;97.92;97750.47;5107988;27;20227;-72
2021/06/29 04:11:13;;;;;;;297.33;141.03;;;;;;;19.50;98.44;97746.78;5116798;27;20231;-72
2021/06/29 04:13:41;;;;;;;297.00;145.30;;;;;;;19.20;100.00;97747.44;5131828;27;20221;-72
2021/06/29 04:16:07;;;;;;;276.33;137.83;;;;;;;19.23;100.00;97750.69;5120446;27;20987;-72
2021/06/29 04:18:34;;;;;;;291.30;138.60;;;;;;;19.45;98.80;97760.38;5107773;27;20247;-72
2021/06/29 04:21:00;;;;;;;289.67;143.87;;;;;;;19.33;100.00;97753.41;5114765;27;20238;-72
2021/06/29 04:23:27;;;;;;;295.10;136.80;;;;;;;19.66;98.33;97756.94;5130756;27;20211;-72
2021/06/29 04:25:53;;;;;;;290.85;141.30;;;;;;;19.31;99.82;97760.63;5119123;27;20239;-72
2021/06/29 04:28:20;;;;;;;279.77;138.30;;;;;;;19.47;100.00;97757.59;5107996;27;20227;-72
2021/06/29 04:30:48;;;;;;;288.83;141.53;;;;;;;19.30;99.94;97747.53;5114299;27;20235;-72
2021/06/29 04:33:15;;;;;;;280.67;140.53;;;;;;;19.39;100.00;97739.72;5128713;27;20214;-72
2021/06/29 04:35:41;;;;;;;283.20;139.00;;;;;;;19.47;99.65;97741.72;5123798;27;20235;-72
2021/06/29 04:38:08;;;;;;;287.47;141.20;;;;;;;19.36;100.00;97744.41;5107227;27;20242;-73
2021/06/29 04:40:34;;;;;;;316.67;147.60;;;;;;;19.54;99.87;97752.66;5112832;27;20238;-72
2021/06/29 04:43:01;;;;;;;301.07;143.00;;;;;;;19.45;99.75;97747.13;5128737;27;20226;-72
2021/06/29 04:45:28;;;;;;;280.45;139.90;;;;;;;19.49;99.74;97738.97;5124551;27;20744;-72
2021/06/29 04:47:56;;;;;;;304.05;139.68;;;;;;;19.63;97.89;97736.88;5109311;27;20204;-72
2021/06/29 04:50:23;;;;;;;291.27;141.90;;;;;;;19.61;98.00;97745.88;5110275;27;20269;-72
2021/06/29 04:52:51;;;;;;;291.77;144.00;;;;;;;19.65;97.53;97728.81;5128617;27;20208;-72
2021/06/29 04:55:18;;;;;;;305.53;143.70;;;;;;;19.70;97.68;97737.19;5126141;27;20242;-72
2021/06/29 04:57:44;;;;;;;285.27;142.37;;;;;;;19.65;97.28;97734.94;5107779;28;20243;-72
2021/06/29 05:00:13;;;;;;;297.70;144.00;;;;;;;19.70;95.53;97725.75;5108831;27;20219;-73
2021/06/29 05:02:40;;;;;;;347.52;154.98;;;;;;;19.63;96.16;97725.44;5118935;27;20394;-72
2021/06/29 05:05:09;;;;;;;278.50;144.88;;;;;;;19.72;95.59;97724.69;5132177;27;20223;-72
2021/06/29 05:07:36;;;;;;;286.98;142.18;;;;;;;19.43;97.04;97725.25;5112328;28;20251;-72
2021/06/29 05:10:03;;;;;;;274.60;141.97;;;;;;;19.61;97.43;97737.94;5111923;28;20230;-69
2021/06/29 05:12:30;;;;;;;270.77;141.35;;;;;;;19.63;96.79;97739.50;5108268;28;20207;-72
2021/06/29 05:14:56;;;;;;;277.40;141.00;;;;;;;19.68;96.74;97744.41;5111656;28;20239;-72
2021/06/29 05:17:23;;;;;;;267.17;131.77;;;;;;;19.62;97.70;97744.91;5130728;27;21012;-72
2021/06/29 05:19:49;;;;;;;266.92;143.93;;;;;;;19.94;95.53;97744.94;5136200;27;20229;-72
2021/06/29 05:22:17;;;;;;;259.45;135.43;;;;;;;19.99;94.83;97749.84;5113039;27;20227;-72
2021/06/29 05:24:44;;;;;;;272.90;139.40;;;;;;;19.79;95.55;97741.75;5115902;27;21296;-72
2021/06/29 05:27:10;;;;;;;267.83;137.47;;;;;;;19.70;95.81;97734.53;5127045;27;20215;-72
2021/06/29 05:29:37;;;;;;;270.60;140.23;;;;;;;19.66;96.80;97743.69;5134558;27;20930;-72
2021/06/29 05:32:04;;;;;;;260.60;138.17;;;;;;;19.47;100.00;97752.31;5116040;27;20232;-72
2021/06/29 05:34:31;;;;;;;270.90;138.53;;;;;;;19.64;98.74;97737.69;5118642;27;20219;-72
2021/06/29 05:36:58;;;;;;;284.23;146.90;;;;;;;19.77;97.63;97746.31;5131699;27;20237;-72
2021/06/29 05:39:25;;;;;;;266.03;137.87;;;;;;;19.83;97.37;97748.47;5134240;27;20842;-73
2021/06/29 05:41:52;;;;;;;268.13;144.83;;;;;;;19.78;98.19;97750.66;5119845;27;20240;-72
2021/06/29 05:44:19;;;;;;;265.07;140.37;;;;;;;19.86;98.57;97746.53;5112664;27;20219;-72
2021/06/29 05:46:45;;;;;;;266.90;136.50;;;;;;;19.86;98.21;97752.66;5128371;27;20254;-72
2021/06/29 05:49:13;;;;;;;257.93;136.50;;;;;;;19.90;99.04;97755.91;5133482;27;20238;-72
2021/06/29 05:51:43;;;;;;;280.63;147.83;;;;;;;20.27;95.70;97753.66;5120549;27;20315;-73
2021/06/29 05:54:10;;;;;;;307.33;157.93;;;;;;;20.77;100.00;97745.03;5112335;27;20211;-72
2021/06/29 05:56:37;;;;;;;285.13;148.53;;;;;;;20.90;99.96;97748.28;5126417;27;20242;-72
2021/06/29 05:59:04;;;;;;;267.30;145.00;;;;;;;20.26;94.14;97754.63;5131398;27;20227;-73
2021/06/29 06:01:30;;;;;;;285.33;145.00;;;;;;;20.21;95.90;97749.72;5118351;27;20246;-72
2021/06/29 06:03:57;;;;;;;263.80;144.17;;;;;;;20.16;96.00;97754.56;5115774;27;20223;-72
2021/06/29 06:06:23;;;;;;;265.47;156.70;;;;;;;20.25;98.66;97765.34;5121916;27;20243;-72
2021/06/29 06:08:50;;;;;;;279.20;159.40;;;;;;;19.98;100.00;97761.41;5133886;27;20723;-73
2021/06/29 06:11:16;;;;;;;272.30;153.87;;;;;;;20.24;100.00;97764.53;5120783;27;20239;-72
2021/06/29 06:13:44;;;;;;;271.47;149.70;;;;;;;20.01;99.09;97771.72;5116858;27;20207;-72
2021/06/29 06:16:11;;;;;;;264.50;150.47;;;;;;;19.96;98.30;97771.25;5123557;27;20234;-73
2021/06/29 06:18:38;;;;;;;278.73;143.13;;;;;;;19.81;96.92;97778.66;5131557;27;20723;-72
2021/06/29 06:21:05;;;;;;;263.07;151.93;;;;;;;20.08;97.63;97780.84;5126691;27;20235;-72
2021/06/29 06:23:32;;;;;;;278.30;145.90;;;;;;;19.83;99.67;97774.94;5114791;27;20283;-72
2021/06/29 06:25:58;;;;;;;258.83;141.83;;;;;;;19.97;99.19;97771.13;5119861;27;20250;-72
2021/06/29 06:28:25;;;;;;;270.60;143.35;;;;;;;19.83;98.48;97764.34;5132738;27;20214;-72
2021/06/29 06:30:53;;;;;;;278.23;152.13;;;;;;;19.98;100.00;97756.13;5125659;27;20236;-73
2021/06/29 06:33:21;;;;;;;258.87;150.63;;;;;;;20.13;96.19;97760.13;5112308;27;20219;-73
2021/06/29 06:35:47;;;;;;;271.23;138.90;;;;;;;19.83;100.00;97763.50;5120133;27;20234;-73
2021/06/29 06:38:14;;;;;;;262.00;139.03;;;;;;;19.82;98.15;97762.66;5137121;27;20597;-73
2021/06/29 06:40:40;;;;;;;287.73;149.85;;;;;;;20.32;96.06;97763.84;5127022;27;20240;-72
2021/06/29 06:43:07;;;;;;;262.58;139.95;;;;;;;20.36;93.15;97754.69;5114037;27;20298;-73
2021/06/29 06:45:34;;;;;;;276.77;154.43;;;;;;;20.37;91.45;97762.50;5116633;27;20235;-72
2021/06/29 06:48:02;;;;;;;266.30;138.90;;;;;;;20.16;100.00;97757.22;5134379;27;20204;-72
2021/06/29 06:50:28;;;;;;;265.17;141.77;;;;;;;20.08;94.40;97746.41;5125641;27;20254;-73
2021/06/29 06:52:55;;;;;;;264.08;140.20;;;;;;;20.55;95.18;97730.94;5111914;27;20215;-73
2021/06/29 06:55:25;;;;;;;247.55;138.40;;;;;;;20.60;90.18;97741.13;5115362;27;20239;-72
2021/06/29 06:57:51;;;;;;;259.45;145.10;;;;;;;20.62;88.29;97749.00;5133410;27;20295;-72
2021/06/29 07:00:20;;;;;;;272.23;151.53;;;;;;;20.43;92.55;97739.94;5132154;27;20207;-72
2021/06/29 07:02:46;;;;;;;285.65;170.45;;;;;;;20.52;91.92;97744.44;5112489;27;20247;-72
2021/06/29 07:05:14;;;;;;;268.95;136.18;;;;;;;20.44;90.09;97736.34;5112884;27;20231;-72
2021/06/29 07:07:41;;;;;;;264.92;128.20;;;;;;;20.64;89.85;97741.75;5128770;27;20211;-73
2021/06/29 07:10:08;;;;;;;276.92;134.43;;;;;;;20.44;94.07;97744.28;5130918;27;20217;-73
2021/06/29 07:12:35;;;;;;;283.60;145.80;;;;;;;20.26;91.68;97738.75;5113192;27;20227;-73
2021/06/29 07:15:02;;;;;;;283.33;145.50;;;;;;;20.51;89.94;97737.50;5110346;27;20239;-73
2021/06/29 07:17:29;;;;;;;261.20;133.02;;;;;;;20.85;89.51;97734.59;5129230;27;20245;-73
2021/06/29 07:19:55;;;;;;;267.15;134.25;;;;;;;20.90;85.79;97737.69;5134123;27;20214;-73
2021/06/29 07:22:23;;;;;;;269.92;140.05;;;;;;;21.12;87.33;97741.09;5111961;27;20750;-73
2021/06/29 07:24:50;;;;;;;264.30;134.82;;;;;;;21.06;84.27;97745.09;5113615;27;20215;-73
2021/06/29 07:27:16;;;;;;;260.70;134.77;;;;;;;20.96;85.51;97741.59;5131912;27;20242;-73
2021/06/29 07:29:43;;;;;;;267.00;131.30;;;;;;;21.01;89.56;97730.59;5133706;27;20587;-73
2021/06/29 07:32:10;;;;;;;264.33;132.57;;;;;;;20.82;90.02;97726.91;5114359;27;20600;-73
2021/06/29 07:34:37;;;;;;;269.52;142.38;;;;;;;21.06;90.92;97725.72;5111009;27;20223;-74
2021/06/29 07:37:03;;;;;;;273.90;141.37;;;;;;;20.89;87.60;97730.69;5127818;27;20235;-73
2021/06/29 07:39:31;;;;;;;263.37;131.03;;;;;;;20.91;86.18;97726.09;5132028;27;20234;-73
2021/06/29 07:41:58;;;;;;;273.00;137.93;;;;;;;20.64;90.00;97717.91;5116762;27;20239;-72
2021/06/29 07:44:24;;;;;;;264.75;128.18;;;;;;;20.58;89.10;97706.81;5113805;27;20221;-73
2021/06/29 07:46:51;;;;;;;262.85;135.10;;;;;;;20.94;90.75;97707.28;5126054;27;20242;-73
2021/06/29 07:49:18;;;;;;;249.95;130.70;;;;;;;21.24;88.20;97700.22;5136257;27;20636;-73
2021/06/29 07:51:45;;;;;;;267.10;139.68;;;;;;;20.93;92.87;97699.44;5117273;27;20247;-73
2021/06/29 07:54:11;;;;;;;266.08;140.10;;;;;;;20.97;93.62;97691.09;5113463;27;20212;-73
2021/06/29 07:56:39;;;;;;;272.55;132.68;;;;;;;21.14;91.37;97691.41;5123148;27;20242;-73
2021/06/29 07:59:05;;;;;;;269.17;143.95;;;;;;;21.50;86.18;97678.47;5130498;27;20839;-72
2021/06/29 08:01:32;;;;;;;279.30;139.05;;;;;;;21.72;84.72;97670.22;5118740;27;20238;-73
2021/06/29 08:03:59;;;;;;;272.00;139.77;;;;;;;21.91;83.00;97658.75;5112426;27;20693;-72
2021/06/29 08:06:25;;;;;;;268.80;146.32;;;;;;;22.00;82.12;97657.06;5119621;27;20239;-72
2021/06/29 08:08:52;;;;;;;264.45;149.77;;;;;;;21.86;82.88;97650.38;5133423;27;20218;-73
2021/06/29 08:11:18;;;;;;;273.60;162.30;;;;;;;21.65;86.33;97645.25;5121572;27;20231;-73
2021/06/29 08:13:46;;;;;;;264.80;155.00;;;;;;;22.00;82.15;97635.81;5110460;27;20223;-72
2021/06/29 08:16:13;;;;;;;305.42;151.63;;;;;;;22.03;82.08;97624.91;5119490;27;20246;-73
2021/06/29 08:18:40;;;;;;;266.13;149.77;;;;;;;22.10;83.26;97619.84;5132392;27;20245;-73
2021/06/29 08:21:07;;;;;;;279.02;158.20;;;;;;;22.43;79.68;97617.66;5124187;27;20231;-73
2021/06/29 08:23:34;;;;;;;278.80;155.35;;;;;;;22.23;81.91;97609.72;5112818;27;20694;-73
2021/06/29 08:26:01;;;;;;;286.55;169.10;;;;;;;22.28;81.65;97606.69;5117919;27;20589;-72
2021/06/29 08:28:28;;;;;;;266.70;160.65;;;;;;;22.51;78.95;97602.63;5130774;27;20222;-73
2021/06/29 08:30:56;;;;;;;286.15;167.07;;;;;;;22.07;82.79;97602.38;5123595;27;20262;-72
2021/06/29 08:33:22;;;;;;;273.45;169.90;;;;;;;22.46;79.90;97594.28;5107969;27;20716;-73
2021/06/29 08:35:50;;;;;;;264.50;158.18;;;;;;;22.54;79.24;97590.88;5117459;27;20245;-73
2021/06/29 08:38:18;;;;;;;251.95;156.55;;;;;;;22.81;77.36;97591.84;5132583;27;20265;-73
2021/06/29 08:40:45;;;;;;;286.35;173.10;;;;;;;22.84;77.06;97589.72;5124561;27;20247;-73
2021/06/29 08:43:13;;;;;;;282.27;166.38;;;;;;;22.65;78.16;97584.53;5108526;27;20215;-73
2021/06/29 08:45:40;;;;;;;274.35;167.82;;;;;;;22.40;80.10;97584.22;5114900;27;20239;-73
2021/06/29 08:48:08;;;;;;;270.73;168.25;;;;;;;22.19;83.14;97586.28;5130692;27;20638;-73
2021/06/29 08:50:35;;;;;;;290.50;177.25;;;;;;;22.39;79.62;97592.38;5126402;27;20254;-73
2021/06/29 08:53:04;;;;;;;284.75;175.73;;;;;;;22.44;79.48;97596.25;5106793;27;20302;-72
2021/06/29 08:55:43;;;;;;;272.30;166.57;;;;;;;22.41;80.32;97590.41;5114281;27;20266;-73
2021/06/29 08:58:10;;;;;;;281.98;174.73;;;;;;;22.57;78.66;97600.38;5128597;27;20307;-73
2021/06/29 09:00:38;;;;;;;289.25;171.07;;;;;;;23.00;76.79;97601.53;5125201;27;20232;-73
2021/06/29 09:03:05;;;;;;;287.23;174.60;;;;;;;22.51;77.88;97586.69;5112373;28;20538;-73
2021/06/29 09:05:33;;;;;;;273.02;172.30;;;;;;;23.37;74.73;97579.28;5114614;27;20235;-73
2021/06/29 09:08:05;;;;;;;264.63;172.05;;;;;;;23.71;73.11;97578.50;5131973;27;20221;-73
2021/06/29 09:10:32;;;;;;;286.98;179.95;;;;;;;23.81;72.39;97584.59;5129422;27;20228;-73
2021/06/29 09:13:00;;;;;;;280.88;182.25;;;;;;;23.60;71.78;97580.44;5111964;27;20704;-73
2021/06/29 09:15:33;;;;;;;272.30;185.77;;;;;;;23.89;71.39;97592.63;5113747;27;20411;-73
2021/06/29 09:18:27;;;;;;;276.80;183.40;;;;;;;23.79;70.81;97607.88;5130618;27;20211;-72
2021/06/29 09:20:57;;;;;;;274.48;175.95;;;;;;;23.32;72.87;97605.50;5121357;27;20224;-73
2021/06/29 09:23:26;;;;;;;273.83;186.48;;;;;;;22.95;73.81;97609.94;5111187;27;20684;-73
2021/06/29 09:25:55;;;;;;;275.75;192.85;;;;;;;24.01;70.55;97607.38;5115244;27;20230;-73
2021/06/29 09:28:24;;;;;;;272.75;183.10;;;;;;;24.10;68.75;97610.94;5131626;27;20218;-73
2021/06/29 09:30:52;;;;;;;274.30;187.75;;;;;;;24.14;69.54;97614.09;5121837;27;20232;-73
2021/06/29 09:33:20;;;;;;;272.33;196.38;;;;;;;24.59;67.52;97615.66;5110675;28;20216;-73
2021/06/29 09:35:50;;;;;;;272.40;191.77;;;;;;;24.79;66.66;97611.75;5114987;27;20238;-73
2021/06/29 09:38:21;;;;;;;276.10;190.73;;;;;;;24.61;67.46;97603.88;5114399;27;20224;-72
2021/06/29 09:40:54;;;;;;;282.67;196.75;;;;;;;24.66;66.43;97606.03;5123396;27;20236;-72
2021/06/29 09:43:22;;;;;;;289.48;207.82;;;;;;;24.34;68.08;97602.22;5109620;28;20215;-73
2021/06/29 09:45:51;;;;;;;273.98;204.45;;;;;;;25.04;65.93;97603.78;5118741;27;20275;-73
2021/06/29 09:48:19;;;;;;;280.38;206.63;;;;;;;24.89;65.83;97608.94;5128734;27;20223;-73
2021/06/29 09:50:48;;;;;;;296.40;208.65;;;;;;;25.23;64.73;97602.66;5110529;28;20239;-72
2021/06/29 09:53:24;;;;;;;269.42;206.80;;;;;;;25.25;64.87;97592.66;5107466;28;20751;-72
2021/06/29 09:55:54;;;;;;;285.35;207.90;;;;;;;25.13;63.66;97581.47;5115393;27;20654;-72
2021/06/29 09:58:21;;;;;;;295.35;223.55;;;;;;;25.48;63.71;97576.84;5130336;27;20219;-73
2021/06/29 10:00:50;;;;;;;305.35;239.25;;;;;;;25.13;63.32;97576.13;5123274;27;20243;-73
2021/06/29 10:03:30;;;;;;;288.80;231.32;;;;;;;24.39;67.22;97572.41;5113016;27;20206;-73
2021/06/29 10:05:58;;;;;;;298.90;229.02;;;;;;;24.04;70.44;97566.25;5118771;27;20262;-73
2021/06/29 10:08:32;;;;;;;285.27;220.98;;;;;;;24.67;67.16;97570.38;5135652;27;20215;-73
2021/06/29 10:11:18;;;;;;;295.90;232.40;;;;;;;24.70;66.46;97559.38;5126571;27;20326;-73
2021/06/29 10:13:48;;;;;;;274.65;218.95;;;;;;;24.90;66.00;97559.09;5113765;27;20212;-73
2021/06/29 10:16:16;;;;;;;347.35;250.15;;;;;;;25.42;64.08;97548.16;5120997;27;20238;-73
2021/06/29 10:18:49;;;;;;;285.52;218.68;;;;;;;25.58;63.14;97542.78;5135428;27;20241;-73
2021/06/29 10:21:18;;;;;;;290.90;227.13;;;;;;;25.27;64.73;97544.47;5121563;27;20267;-73
2021/06/29 10:23:47;;;;;;;291.38;224.32;;;;;;;25.04;68.12;97545.09;5113636;27;20215;-73
2021/06/29 10:26:14;;;;;;;284.33;210.95;;;;;;;24.65;68.20;97542.19;5124898;27;20333;-73
2021/06/29 10:28:41;;;;;;;298.17;223.45;;;;;;;24.05;66.40;97539.44;5133340;27;20222;-72
2021/06/29 10:31:07;;;;;;;290.67;215.35;;;;;;;24.52;65.91;97529.28;5122237;27;20237;-73
2021/06/29 10:33:34;;;;;;;288.92;222.23;;;;;;;24.40;65.13;97532.25;5115052;27;20235;-73
2021/06/29 10:36:01;;;;;;;293.23;219.48;;;;;;;25.07;64.70;97536.78;5120219;27;20235;-73
2021/06/29 10:38:28;;;;;;;284.20;217.07;;;;;;;24.95;65.74;97522.09;5134898;27;20892;-73
2021/06/29 10:40:57;;;;;;;280.98;219.20;;;;;;;24.76;66.82;97520.56;5126306;27;20238;-73
2021/06/29 10:43:24;;;;;;;276.05;213.80;;;;;;;25.13;63.51;97522.75;5112104;27;20208;-72
2021/06/29 10:45:52;;;;;;;274.73;224.02;;;;;;;25.64;62.67;97524.41;5117915;27;20246;-73
2021/06/29 10:48:20;;;;;;;283.60;234.38;;;;;;;25.66;61.62;97517.03;5135853;27;20695;-73
2021/06/29 10:50:48;;;;;;;295.45;231.52;;;;;;;25.97;60.60;97514.47;5127823;27;20244;-73
2021/06/29 10:53:49;;;;;;;287.77;233.68;;;;;;;26.10;59.35;97504.09;5112647;27;20223;-73
2021/06/29 10:56:19;;;;;;;287.73;226.27;;;;;;;26.02;58.57;97506.78;5050023;28;20306;-73
2021/06/29 10:58:48;;;;;;;270.77;229.15;;;;;;;25.82;58.35;97500.97;5051601;28;20220;-72
2021/06/29 11:01:26;;;;;;;287.20;227.13;;;;;;;25.57;57.23;97497.56;5076819;27;20248;-73
2021/06/29 11:03:53;;;;;;;288.10;233.25;;;;;;;26.14;58.63;97492.06;5115085;27;20689;-73